Time;durP1;ratioP1;P1;durP2;ratioP2;P2;SDS_P1;SDS_P2;PMS_P1;PMS_P2;Temp;Humidity;BMP_temperature;BMP_pressure;BME280_temperature;BME280_humidity;BME280_pressure;Samples;Min_cycle;Max_cycle;Signal;HPM_P1;HPM_P2
2024/03/23 00:01:45;;;;;;;2.03;0.80;;;;;;;;;;5055504;28;20514;-77
2024/03/23 00:04:12;;;;;;;1.83;0.98;;;;;;;;;;5072440;28;20044;-77
2024/03/23 00:06:39;;;;;;;3.45;1.00;;;;;;;;;;5070570;28;20035;-77
2024/03/23 00:09:06;;;;;;;2.03;0.88;;;;;;;;;;5053287;28;20689;-77
2024/03/23 00:11:32;;;;;;;1.70;0.70;;;;;;;;;;5067483;28;20062;-77
2024/03/23 00:13:58;;;;;;;1.02;0.75;;;;;;;;;;5073100;28;20028;-78
2024/03/23 00:16:26;;;;;;;2.28;0.77;;;;;;;;;;5050096;28;20504;-77
2024/03/23 00:18:52;;;;;;;1.70;0.70;;;;;;;;;;5072349;28;20045;-79
2024/03/23 00:21:19;;;;;;;2.28;0.85;;;;;;;;;;5063005;28;20035;-77
2024/03/23 00:23:45;;;;;;;1.40;0.52;;;;;;;;;;5074969;28;20032;-78
2024/03/23 00:26:11;;;;;;;1.48;0.85;;;;;;;;;;5062049;28;20040;-78
2024/03/23 00:28:38;;;;;;;1.13;0.55;;;;;;;;;;5051625;28;20039;-78
2024/03/23 00:31:04;;;;;;;3.08;0.70;;;;;;;;;;5071788;28;20051;-78
2024/03/23 00:33:30;;;;;;;0.70;0.70;;;;;;;;;;5061370;28;20043;-78
2024/03/23 00:35:57;;;;;;;2.70;0.70;;;;;;;;;;5071041;28;20048;-78
2024/03/23 00:38:24;;;;;;;3.47;0.52;;;;;;;;;;5066274;28;20397;-78
2024/03/23 00:40:51;;;;;;;2.15;0.70;;;;;;;;;;5067534;28;20045;-78
2024/03/23 00:43:18;;;;;;;2.28;0.80;;;;;;;;;;5066800;28;20102;-78
2024/03/23 00:45:44;;;;;;;0.93;0.60;;;;;;;;;;5070366;28;20090;-77
2024/03/23 00:48:11;;;;;;;0.85;0.60;;;;;;;;;;5069371;28;20062;-76
2024/03/23 00:50:37;;;;;;;1.23;0.60;;;;;;;;;;5027563;28;20147;-78
2024/03/23 00:53:03;;;;;;;1.80;0.75;;;;;;;;;;5071963;28;20055;-78
2024/03/23 00:55:28;;;;;;;3.78;0.90;;;;;;;;;;5072249;28;20489;-77
2024/03/23 00:57:54;;;;;;;4.25;0.90;;;;;;;;;;5063457;28;20045;-78
2024/03/23 01:00:19;;;;;;;1.35;0.52;;;;;;;;;;5051074;28;20040;-79
2024/03/23 01:02:44;;;;;;;2.08;0.45;;;;;;;;;;5060462;28;20676;-77
2024/03/23 01:05:10;;;;;;;1.42;0.50;;;;;;;;;;5069787;28;20044;-78
2024/03/23 01:07:35;;;;;;;1.20;0.50;;;;;;;;;;5048687;28;20491;-77
2024/03/23 01:10:00;;;;;;;1.13;0.50;;;;;;;;;;5072334;28;20334;-77
2024/03/23 01:12:26;;;;;;;1.30;0.60;;;;;;;;;;5079188;28;20645;-77
2024/03/23 01:14:51;;;;;;;3.13;0.82;;;;;;;;;;5064266;28;20520;-77
2024/03/23 01:17:17;;;;;;;3.80;0.60;;;;;;;;;;5051698;28;20056;-78
2024/03/23 01:19:42;;;;;;;0.50;0.47;;;;;;;;;;5067393;28;20098;-77
2024/03/23 01:22:09;;;;;;;1.92;0.68;;;;;;;;;;5072494;28;20040;-78
2024/03/23 01:24:35;;;;;;;1.48;0.75;;;;;;;;;;5049579;28;20091;-78
2024/03/23 01:27:00;;;;;;;0.85;0.70;;;;;;;;;;5071608;28;20028;-77
2024/03/23 01:29:26;;;;;;;2.28;0.77;;;;;;;;;;5069539;28;20039;-77
2024/03/23 01:31:51;;;;;;;2.83;0.90;;;;;;;;;;5064735;28;20040;-78
2024/03/23 01:34:17;;;;;;;1.27;0.77;;;;;;;;;;5051444;28;20036;-78
2024/03/23 01:36:42;;;;;;;2.05;1.48;;;;;;;;;;5058624;28;20037;-77
2024/03/23 01:39:09;;;;;;;0.88;0.73;;;;;;;;;;5069871;28;20128;-79
2024/03/23 01:41:36;;;;;;;1.88;0.63;;;;;;;;;;5059220;28;20162;-78
2024/03/23 01:44:05;;;;;;;1.05;0.68;;;;;;;;;;5071154;28;20577;-78
2024/03/23 01:46:30;;;;;;;3.03;0.90;;;;;;;;;;5064779;28;20044;-78
2024/03/23 01:48:56;;;;;;;1.67;0.90;;;;;;;;;;5067393;28;20699;-78
2024/03/23 01:51:22;;;;;;;2.85;0.80;;;;;;;;;;5072090;28;20081;-77
2024/03/23 01:53:49;;;;;;;1.90;0.90;;;;;;;;;;5059028;28;20475;-77
2024/03/23 01:56:15;;;;;;;0.82;0.60;;;;;;;;;;5047503;28;20036;-77
2024/03/23 01:58:40;;;;;;;1.55;0.60;;;;;;;;;;5050370;28;20461;-78
2024/03/23 02:01:06;;;;;;;5.53;0.80;;;;;;;;;;5070087;28;20047;-77
2024/03/23 02:03:31;;;;;;;1.60;0.70;;;;;;;;;;5054695;28;20032;-77
2024/03/23 02:05:57;;;;;;;1.08;0.60;;;;;;;;;;5063711;28;20497;-77
2024/03/23 02:08:24;;;;;;;1.50;1.10;;;;;;;;;;5063147;28;20036;-76
2024/03/23 02:10:50;;;;;;;1.33;0.70;;;;;;;;;;5072218;28;20025;-77
2024/03/23 02:13:16;;;;;;;4.88;0.70;;;;;;;;;;5068685;28;20044;-76
2024/03/23 02:15:42;;;;;;;1.00;0.63;;;;;;;;;;5059887;28;20140;-78
2024/03/23 02:18:08;;;;;;;2.33;0.70;;;;;;;;;;5049403;28;20561;-77
2024/03/23 02:20:37;;;;;;;2.25;0.68;;;;;;;;;;5060041;28;20047;-78
2024/03/23 02:23:06;;;;;;;2.05;0.77;;;;;;;;;;5062349;28;20051;-77
2024/03/23 02:25:34;;;;;;;1.83;1.00;;;;;;;;;;5057311;28;20036;-77
2024/03/23 02:28:00;;;;;;;1.95;0.80;;;;;;;;;;5066667;28;20047;-77
2024/03/23 02:30:26;;;;;;;1.58;0.65;;;;;;;;;;5066431;28;20037;-77
2024/03/23 02:32:51;;;;;;;0.45;0.45;;;;;;;;;;5051626;28;20041;-76
2024/03/23 02:35:17;;;;;;;2.63;0.93;;;;;;;;;;5070563;28;20497;-77
2024/03/23 02:37:42;;;;;;;0.90;0.63;;;;;;;;;;5062787;28;20120;-77
2024/03/23 02:40:08;;;;;;;1.80;1.10;;;;;;;;;;5059487;28;20049;-76
2024/03/23 02:42:33;;;;;;;2.20;0.70;;;;;;;;;;5052037;28;20032;-76
2024/03/23 02:44:58;;;;;;;0.70;0.68;;;;;;;;;;5053864;28;20047;-77
2024/03/23 02:47:24;;;;;;;0.68;0.52;;;;;;;;;;5068876;28;20114;-77
2024/03/23 02:49:49;;;;;;;1.30;1.10;;;;;;;;;;5061217;28;20135;-77
2024/03/23 02:52:14;;;;;;;0.73;0.60;;;;;;;;;;5071532;28;20101;-77
2024/03/23 02:54:42;;;;;;;0.90;0.60;;;;;;;;;;5063415;28;20037;-77
2024/03/23 02:57:07;;;;;;;1.42;1.13;;;;;;;;;;5053025;28;20044;-77
2024/03/23 02:59:32;;;;;;;2.25;0.90;;;;;;;;;;5072443;28;20060;-77
2024/03/23 03:01:59;;;;;;;0.82;0.55;;;;;;;;;;5055266;28;20036;-77
2024/03/23 03:04:25;;;;;;;1.27;0.77;;;;;;;;;;5068722;28;20050;-77
2024/03/23 03:06:50;;;;;;;4.13;1.60;;;;;;;;;;5053902;28;20032;-77
2024/03/23 03:09:15;;;;;;;4.53;1.20;;;;;;;;;;5055461;28;20546;-77
2024/03/23 03:11:41;;;;;;;2.30;1.00;;;;;;;;;;5055689;28;20475;-77
2024/03/23 03:14:07;;;;;;;4.80;1.48;;;;;;;;;;5055023;28;20044;-77
2024/03/23 03:16:33;;;;;;;2.38;1.00;;;;;;;;;;5054813;28;20045;-77
2024/03/23 03:18:58;;;;;;;1.30;0.98;;;;;;;;;;5046340;28;20032;-77
2024/03/23 03:21:24;;;;;;;3.00;1.40;;;;;;;;;;5070674;28;20038;-77
2024/03/23 03:23:50;;;;;;;2.80;1.10;;;;;;;;;;5054172;28;20401;-77
2024/03/23 03:26:18;;;;;;;4.15;1.27;;;;;;;;;;5069941;28;20059;-77
2024/03/23 03:28:48;;;;;;;1.55;0.50;;;;;;;;;;5065122;28;20439;-77
2024/03/23 03:31:16;;;;;;;3.40;1.38;;;;;;;;;;5061735;28;20074;-77
2024/03/23 03:33:42;;;;;;;2.47;1.20;;;;;;;;;;5055552;28;20573;-77
2024/03/23 03:36:07;;;;;;;1.88;1.17;;;;;;;;;;5049325;28;20033;-76
2024/03/23 03:38:35;;;;;;;6.57;1.85;;;;;;;;;;5059780;28;20043;-76
2024/03/23 03:41:01;;;;;;;3.38;1.13;;;;;;;;;;5028595;28;20097;-76
2024/03/23 03:43:26;;;;;;;2.63;1.17;;;;;;;;;;5065454;28;20036;-77
2024/03/23 03:45:55;;;;;;;2.00;1.02;;;;;;;;;;5061408;28;20039;-77
2024/03/23 03:48:21;;;;;;;2.97;1.02;;;;;;;;;;5065663;28;20524;-77
2024/03/23 03:50:46;;;;;;;1.70;0.80;;;;;;;;;;5066837;28;20043;-77
2024/03/23 03:53:11;;;;;;;7.25;1.67;;;;;;;;;;5060399;28;20036;-78
2024/03/23 03:55:37;;;;;;;1.23;0.98;;;;;;;;;;5062621;28;20490;-77
2024/03/23 03:58:03;;;;;;;2.45;1.05;;;;;;;;;;5054608;28;20041;-76
2024/03/23 04:00:28;;;;;;;4.25;2.00;;;;;;;;;;5071578;28;20036;-76
2024/03/23 04:02:53;;;;;;;3.80;1.50;;;;;;;;;;5064688;28;20591;-76
2024/03/23 04:05:19;;;;;;;3.03;1.75;;;;;;;;;;5069651;28;20193;-76
2024/03/23 04:07:45;;;;;;;3.67;1.60;;;;;;;;;;5071785;28;20028;-77
2024/03/23 04:10:11;;;;;;;6.32;1.95;;;;;;;;;;5071961;28;20044;-77
2024/03/23 04:12:36;;;;;;;4.90;2.28;;;;;;;;;;5073545;28;20028;-77
2024/03/23 04:15:04;;;;;;;6.70;2.85;;;;;;;;;;5066787;28;20038;-77
2024/03/23 04:17:31;;;;;;;3.63;2.13;;;;;;;;;;5069678;28;20059;-78
2024/03/23 04:19:58;;;;;;;4.63;1.85;;;;;;;;;;5054662;28;20032;-78
2024/03/23 04:22:26;;;;;;;3.00;1.52;;;;;;;;;;5068211;28;20040;-78
2024/03/23 04:24:55;;;;;;;4.22;2.53;;;;;;;;;;5078170;28;20110;-76
2024/03/23 04:27:21;;;;;;;4.53;2.38;;;;;;;;;;5073677;28;20050;-77
2024/03/23 04:29:48;;;;;;;5.28;2.05;;;;;;;;;;5073189;28;20039;-77
2024/03/23 04:32:13;;;;;;;4.82;1.98;;;;;;;;;;5025018;28;23326;-77
2024/03/23 04:34:39;;;;;;;3.28;2.00;;;;;;;;;;5052988;28;20037;-77
2024/03/23 04:37:04;;;;;;;5.88;2.58;;;;;;;;;;5054577;28;20040;-78
2024/03/23 04:39:30;;;;;;;3.78;1.98;;;;;;;;;;5046381;28;20114;-77
2024/03/23 04:41:55;;;;;;;1.83;1.27;;;;;;;;;;5070910;28;20059;-77
2024/03/23 04:44:21;;;;;;;2.55;1.33;;;;;;;;;;5071898;28;20087;-77
2024/03/23 04:46:46;;;;;;;3.53;1.92;;;;;;;;;;5047896;28;20787;-78
2024/03/23 04:49:11;;;;;;;6.15;2.63;;;;;;;;;;5055250;28;20041;-77
2024/03/23 04:51:37;;;;;;;5.35;2.78;;;;;;;;;;5072308;28;21839;-77
2024/03/23 04:54:03;;;;;;;8.38;2.90;;;;;;;;;;5065697;28;20036;-77
2024/03/23 04:56:29;;;;;;;5.50;2.50;;;;;;;;;;5072210;28;20040;-77
2024/03/23 04:58:54;;;;;;;5.68;2.90;;;;;;;;;;5072821;28;20039;-77
2024/03/23 05:01:20;;;;;;;2.45;1.20;;;;;;;;;;5068912;28;20036;-78
2024/03/23 05:03:45;;;;;;;5.53;2.22;;;;;;;;;;5074699;28;20043;-77
2024/03/23 05:06:10;;;;;;;3.95;2.33;;;;;;;;;;5043152;28;20097;-76
2024/03/23 05:08:36;;;;;;;4.32;2.42;;;;;;;;;;5063729;28;20056;-78
2024/03/23 05:11:01;;;;;;;12.80;3.65;;;;;;;;;;5054439;28;20412;-77
2024/03/23 05:13:26;;;;;;;6.70;2.70;;;;;;;;;;5062302;28;20109;-77
2024/03/23 05:15:54;;;;;;;6.05;2.85;;;;;;;;;;5052136;28;20077;-77
2024/03/23 05:18:21;;;;;;;6.15;3.05;;;;;;;;;;5067081;28;20043;-78
2024/03/23 05:20:46;;;;;;;6.75;2.28;;;;;;;;;;5070206;28;20036;-77
2024/03/23 05:23:11;;;;;;;3.58;1.50;;;;;;;;;;5041751;28;20044;-77
2024/03/23 05:25:37;;;;;;;7.40;2.47;;;;;;;;;;5052097;28;20929;-77
2024/03/23 05:28:02;;;;;;;4.57;1.88;;;;;;;;;;5059032;28;20127;-78
2024/03/23 05:30:28;;;;;;;1.92;1.20;;;;;;;;;;5062370;28;20032;-79
2024/03/23 05:32:54;;;;;;;1.02;0.75;;;;;;;;;;5063685;28;20525;-79
2024/03/23 05:35:19;;;;;;;3.13;1.52;;;;;;;;;;5072291;28;20344;-78
2024/03/23 05:37:45;;;;;;;1.85;0.98;;;;;;;;;;5061946;28;20082;-77
2024/03/23 05:40:12;;;;;;;7.47;1.20;;;;;;;;;;5041313;28;20818;-78
2024/03/23 05:42:38;;;;;;;0.90;0.73;;;;;;;;;;5067275;28;20035;-77
2024/03/23 05:45:06;;;;;;;1.83;0.57;;;;;;;;;;5061036;28;20040;-78
2024/03/23 05:47:31;;;;;;;0.57;0.50;;;;;;;;;;5049662;28;20056;-77
2024/03/23 05:49:57;;;;;;;0.63;0.55;;;;;;;;;;5059931;28;20044;-77
2024/03/23 05:52:25;;;;;;;0.32;0.32;;;;;;;;;;5066366;28;20043;-77
2024/03/23 05:54:50;;;;;;;0.80;0.40;;;;;;;;;;5064681;28;20036;-77
2024/03/23 05:57:16;;;;;;;0.77;0.43;;;;;;;;;;5024957;28;20042;-77
2024/03/23 05:59:41;;;;;;;0.57;0.45;;;;;;;;;;5054969;28;20040;-77
2024/03/23 06:02:07;;;;;;;0.95;0.28;;;;;;;;;;5071542;28;20047;-77
2024/03/23 06:04:32;;;;;;;1.88;0.52;;;;;;;;;;5046179;28;20032;-77
2024/03/23 06:06:57;;;;;;;0.85;0.30;;;;;;;;;;5057934;28;20032;-76
2024/03/23 06:09:23;;;;;;;0.20;0.20;;;;;;;;;;5059664;28;20028;-77
2024/03/23 06:11:49;;;;;;;0.20;0.20;;;;;;;;;;5065875;28;20036;-76
2024/03/23 06:14:14;;;;;;;0.32;0.32;;;;;;;;;;5059093;28;22127;-77
2024/03/23 06:16:40;;;;;;;0.30;0.30;;;;;;;;;;5065087;28;20051;-76
2024/03/23 06:19:06;;;;;;;0.35;0.20;;;;;;;;;;5065675;28;20074;-76
2024/03/23 06:21:33;;;;;;;1.30;0.22;;;;;;;;;;5065165;28;20040;-77
2024/03/23 06:23:58;;;;;;;0.20;0.20;;;;;;;;;;5066289;28;20385;-77
2024/03/23 06:26:24;;;;;;;0.30;0.30;;;;;;;;;;5075493;28;20028;-77
2024/03/23 06:28:49;;;;;;;0.20;0.20;;;;;;;;;;5057348;28;20039;-77
2024/03/23 06:31:14;;;;;;;0.15;0.15;;;;;;;;;;5031918;28;20127;-77
2024/03/23 06:33:41;;;;;;;0.15;0.15;;;;;;;;;;5071735;28;20032;-76
2024/03/23 06:36:10;;;;;;;0.22;0.20;;;;;;;;;;5077443;28;20748;-77
2024/03/23 06:38:37;;;;;;;0.25;0.25;;;;;;;;;;5072779;28;20060;-77
2024/03/23 06:41:06;;;;;;;0.25;0.10;;;;;;;;;;5077387;28;20036;-77
2024/03/23 06:43:32;;;;;;;0.98;0.30;;;;;;;;;;5076625;28;20028;-77
2024/03/23 06:45:57;;;;;;;0.20;0.20;;;;;;;;;;5076254;28;20666;-78
2024/03/23 06:48:22;;;;;;;0.20;0.20;;;;;;;;;;5048476;28;20040;-77
2024/03/23 06:50:48;;;;;;;0.10;0.10;;;;;;;;;;5059898;28;20060;-77
2024/03/23 06:53:14;;;;;;;0.20;0.20;;;;;;;;;;5071451;28;20040;-77
2024/03/23 06:55:40;;;;;;;0.30;0.30;;;;;;;;;;5077521;28;20032;-76
2024/03/23 06:58:05;;;;;;;0.60;0.60;;;;;;;;;;5077007;28;20071;-76
2024/03/23 07:00:35;;;;;;;0.15;0.15;;;;;;;;;;5077460;28;20427;-76
2024/03/23 07:03:00;;;;;;;0.30;0.30;;;;;;;;;;5058470;28;20048;-78
2024/03/23 07:05:26;;;;;;;0.60;0.60;;;;;;;;;;5047018;28;20548;-77
2024/03/23 07:07:51;;;;;;;0.32;0.30;;;;;;;;;;5063616;28;20082;-77
2024/03/23 07:10:17;;;;;;;0.20;0.20;;;;;;;;;;5067338;28;20491;-78
2024/03/23 07:12:42;;;;;;;0.32;0.32;;;;;;;;;;5071617;28;20552;-78
2024/03/23 07:15:08;;;;;;;0.30;0.20;;;;;;;;;;5066618;28;20073;-78
2024/03/23 07:17:35;;;;;;;0.20;0.20;;;;;;;;;;5057217;28;20073;-78
2024/03/23 07:20:03;;;;;;;0.30;0.30;;;;;;;;;;5053130;28;20444;-78
2024/03/23 07:22:31;;;;;;;0.52;0.32;;;;;;;;;;5057576;28;20037;-78
2024/03/23 07:24:59;;;;;;;0.60;0.50;;;;;;;;;;5068139;28;20060;-78
2024/03/23 07:27:25;;;;;;;0.30;0.30;;;;;;;;;;5068014;28;20028;-78
2024/03/23 07:29:50;;;;;;;3.70;0.52;;;;;;;;;;5055622;28;20066;-80
2024/03/23 07:32:16;;;;;;;0.40;0.40;;;;;;;;;;5051015;28;20527;-79
2024/03/23 07:34:43;;;;;;;0.10;0.10;;;;;;;;;;5055914;28;20037;-78
2024/03/23 07:37:08;;;;;;;0.40;0.40;;;;;;;;;;5038882;28;20044;-78
2024/03/23 07:39:34;;;;;;;0.88;0.40;;;;;;;;;;5061933;28;20168;-78
2024/03/23 07:41:59;;;;;;;0.90;0.28;;;;;;;;;;5062212;28;20036;-77
2024/03/23 07:44:25;;;;;;;0.55;0.30;;;;;;;;;;5059192;28;20036;-77
2024/03/23 07:46:50;;;;;;;2.67;0.40;;;;;;;;;;5053598;28;20119;-78
2024/03/23 07:49:15;;;;;;;0.55;0.25;;;;;;;;;;5053700;28;20033;-79
2024/03/23 07:51:41;;;;;;;0.28;0.20;;;;;;;;;;5054587;28;20033;-79
2024/03/23 07:54:06;;;;;;;0.30;0.30;;;;;;;;;;5051663;28;20086;-78
2024/03/23 07:56:32;;;;;;;0.35;0.30;;;;;;;;;;5044202;28;20414;-78
2024/03/23 07:58:57;;;;;;;0.40;0.40;;;;;;;;;;5057190;28;20039;-77
2024/03/23 08:01:23;;;;;;;0.30;0.30;;;;;;;;;;5059274;28;20113;-78
2024/03/23 08:03:49;;;;;;;0.68;0.20;;;;;;;;;;5069284;28;20527;-78
2024/03/23 08:06:17;;;;;;;0.25;0.25;;;;;;;;;;5064463;28;20043;-78
2024/03/23 08:08:44;;;;;;;0.63;0.30;;;;;;;;;;5063612;28;20233;-79
2024/03/23 08:11:10;;;;;;;0.22;0.22;;;;;;;;;;5050145;28;20047;-76
2024/03/23 08:13:39;;;;;;;0.20;0.20;;;;;;;;;;5061177;28;20058;-77
2024/03/23 08:16:04;;;;;;;0.17;0.17;;;;;;;;;;5059370;28;20044;-77
2024/03/23 08:18:30;;;;;;;0.10;0.10;;;;;;;;;;5053554;28;20044;-77
2024/03/23 08:21:06;;;;;;;0.20;0.20;;;;;;;;;;5053181;28;20044;-78
2024/03/23 08:23:39;;;;;;;0.20;0.20;;;;;;;;;;5054164;28;20029;-78
2024/03/23 08:26:06;;;;;;;0.20;0.20;;;;;;;;;;5049725;28;20044;-79
2024/03/23 08:28:32;;;;;;;0.20;0.20;;;;;;;;;;5028718;28;20049;-78
2024/03/23 08:31:01;;;;;;;0.20;0.20;;;;;;;;;;5053651;28;20049;-79
2024/03/23 08:33:26;;;;;;;0.10;0.10;;;;;;;;;;5060971;28;20684;-79
2024/03/23 08:35:59;;;;;;;0.80;0.30;;;;;;;;;;5058378;28;20044;-78
2024/03/23 08:38:25;;;;;;;0.95;0.40;;;;;;;;;;5060154;28;20566;-78
2024/03/23 08:41:04;;;;;;;0.40;0.40;;;;;;;;;;5068664;28;20127;-78
2024/03/23 08:43:31;;;;;;;0.40;0.30;;;;;;;;;;5028700;28;20120;-78
2024/03/23 08:46:06;;;;;;;0.30;0.20;;;;;;;;;;5068987;28;20040;-78
2024/03/23 08:48:33;;;;;;;0.28;0.25;;;;;;;;;;5064380;28;20043;-78
2024/03/23 08:51:05;;;;;;;1.60;0.70;;;;;;;;;;5068623;28;20052;-78
2024/03/23 08:53:31;;;;;;;1.38;0.85;;;;;;;;;;5073108;28;20073;-78
2024/03/23 08:55:57;;;;;;;3.30;1.40;;;;;;;;;;5054505;28;20584;-79
2024/03/23 08:58:24;;;;;;;1.05;0.95;;;;;;;;;;5044001;28;20357;-78
2024/03/23 09:00:51;;;;;;;2.85;0.98;;;;;;;;;;5053240;28;20040;-77
2024/03/23 09:03:16;;;;;;;2.15;0.88;;;;;;;;;;5036631;28;20111;-78
2024/03/23 09:05:42;;;;;;;0.70;0.70;;;;;;;;;;5051869;28;20036;-77
2024/03/23 09:08:08;;;;;;;1.67;0.70;;;;;;;;;;5059311;28;20102;-78
2024/03/23 09:10:39;;;;;;;4.13;1.48;;;;;;;;;;5065314;28;20123;-79
2024/03/23 09:13:05;;;;;;;2.55;0.63;;;;;;;;;;5051387;28;20037;-80
2024/03/23 09:15:31;;;;;;;3.95;1.40;;;;;;;;;;5062872;28;20111;-78
2024/03/23 09:17:59;;;;;;;1.33;0.80;;;;;;;;;;5063878;28;20036;-78
2024/03/23 09:20:24;;;;;;;1.15;0.43;;;;;;;;;;5070766;28;20045;-79
2024/03/23 09:22:50;;;;;;;0.95;0.40;;;;;;;;;;5062202;28;20047;-79
2024/03/23 09:25:15;;;;;;;0.93;0.90;;;;;;;;;;5065384;28;20060;-78
2024/03/23 09:27:40;;;;;;;1.75;0.50;;;;;;;;;;5054156;28;20548;-80
2024/03/23 09:30:06;;;;;;;2.50;0.70;;;;;;;;;;5056962;28;20127;-79
2024/03/23 09:32:32;;;;;;;0.60;0.32;;;;;;;;;;5045896;28;20040;-80
2024/03/23 09:34:57;;;;;;;2.05;0.50;;;;;;;;;;5055792;28;20028;-80
2024/03/23 09:37:23;;;;;;;2.67;0.70;;;;;;;;;;5040739;28;20408;-80
2024/03/23 09:39:48;;;;;;;2.22;1.35;;;;;;;;;;5062254;28;20034;-80
2024/03/23 09:42:14;;;;;;;2.05;0.90;;;;;;;;;;5069988;28;20028;-79
2024/03/23 09:44:40;;;;;;;3.90;1.08;;;;;;;;;;5056678;28;20102;-78
2024/03/23 09:47:08;;;;;;;1.38;0.68;;;;;;;;;;5052190;28;20721;-80
2024/03/23 09:49:36;;;;;;;7.55;1.20;;;;;;;;;;5028793;28;20090;-79
2024/03/23 09:52:02;;;;;;;3.35;1.17;;;;;;;;;;5069106;28;20032;-79
2024/03/23 09:54:27;;;;;;;4.90;1.38;;;;;;;;;;5054324;28;20127;-79
2024/03/23 09:56:53;;;;;;;5.03;1.45;;;;;;;;;;5056487;28;20121;-80
2024/03/23 09:59:18;;;;;;;2.70;1.27;;;;;;;;;;5044511;28;20579;-78
2024/03/23 10:01:44;;;;;;;3.17;1.00;;;;;;;;;;5067347;28;20033;-77
2024/03/23 10:04:09;;;;;;;2.67;1.30;;;;;;;;;;5044337;28;20039;-78
2024/03/23 10:06:35;;;;;;;1.25;1.00;;;;;;;;;;5057202;28;20029;-77
2024/03/23 10:09:00;;;;;;;1.55;1.05;;;;;;;;;;5062368;28;20041;-79
2024/03/23 10:11:27;;;;;;;3.88;1.67;;;;;;;;;;5050031;28;20065;-81
2024/03/23 10:13:52;;;;;;;2.47;1.35;;;;;;;;;;5065100;28;20078;-79
2024/03/23 10:16:22;;;;;;;2.92;0.88;;;;;;;;;;5064162;28;20043;-79
2024/03/23 10:18:49;;;;;;;6.30;1.70;;;;;;;;;;5061953;28;20081;-79
2024/03/23 10:21:15;;;;;;;4.57;1.08;;;;;;;;;;5054897;28;20051;-78
2024/03/23 10:23:43;;;;;;;8.25;2.38;;;;;;;;;;5061010;28;20045;-77
2024/03/23 10:26:22;;;;;;;4.80;1.67;;;;;;;;;;5062660;28;20052;-79
2024/03/23 10:28:56;;;;;;;3.53;1.30;;;;;;;;;;5056908;28;20041;-79
2024/03/23 10:31:22;;;;;;;3.33;1.10;;;;;;;;;;5049390;28;20037;-79
2024/03/23 10:33:48;;;;;;;8.20;2.97;;;;;;;;;;5049261;28;20028;-79
2024/03/23 10:36:14;;;;;;;6.88;2.85;;;;;;;;;;5054717;28;20040;-78
2024/03/23 10:38:41;;;;;;;7.80;1.95;;;;;;;;;;5060088;28;20037;-78
2024/03/23 10:41:09;;;;;;;3.90;1.60;;;;;;;;;;5053450;28;20060;-78
2024/03/23 10:43:36;;;;;;;4.88;2.17;;;;;;;;;;5057718;28;20162;-78
2024/03/23 10:46:01;;;;;;;10.02;3.08;;;;;;;;;;5053711;28;20037;-78
2024/03/23 10:48:27;;;;;;;4.72;1.52;;;;;;;;;;5058448;28;20040;-78
2024/03/23 10:50:53;;;;;;;7.75;3.08;;;;;;;;;;5056632;28;20455;-78
2024/03/23 10:53:20;;;;;;;6.47;2.72;;;;;;;;;;5052081;28;20033;-78
2024/03/23 10:55:46;;;;;;;10.88;3.15;;;;;;;;;;5060548;28;20050;-78
2024/03/23 10:58:12;;;;;;;16.35;7.68;;;;;;;;;;5064986;28;20040;-78
2024/03/23 11:00:38;;;;;;;10.35;5.35;;;;;;;;;;5063763;28;20033;-77
2024/03/23 11:03:33;;;;;;;16.63;8.98;;;;;;;;;;5056115;28;20132;-77
2024/03/23 11:06:00;;;;;;;20.10;8.63;;;;;;;;;;5052858;28;20029;-77
2024/03/23 11:08:38;;;;;;;7.03;3.17;;;;;;;;;;5057384;28;20047;-79
2024/03/23 11:11:19;;;;;;;2.35;1.70;;;;;;;;;;5054942;28;20120;-79
2024/03/23 11:13:48;;;;;;;5.17;3.90;;;;;;;;;;5063039;28;20036;-77
2024/03/23 11:16:17;;;;;;;6.03;2.88;;;;;;;;;;5064281;28;20363;-77
2024/03/23 11:18:44;;;;;;;4.40;2.13;;;;;;;;;;5047994;28;20740;-78
2024/03/23 11:21:10;;;;;;;4.22;2.38;;;;;;;;;;5058272;28;21501;-78
2024/03/23 11:23:38;;;;;;;3.70;2.10;;;;;;;;;;5068728;28;20149;-78
2024/03/23 11:26:07;;;;;;;8.93;4.45;;;;;;;;;;5068580;28;20043;-79
2024/03/23 11:28:35;;;;;;;6.43;3.55;;;;;;;;;;5073052;28;20043;-79
2024/03/23 11:31:01;;;;;;;6.68;3.08;;;;;;;;;;5074018;28;20069;-79
2024/03/23 11:33:28;;;;;;;8.25;3.35;;;;;;;;;;5072748;28;20048;-79
2024/03/23 11:35:54;;;;;;;8.48;3.28;;;;;;;;;;5062072;28;20035;-78
2024/03/23 11:38:19;;;;;;;3.03;2.22;;;;;;;;;;5067093;28;20041;-80
2024/03/23 11:40:49;;;;;;;6.53;3.78;;;;;;;;;;5070712;28;20040;-79
2024/03/23 11:43:17;;;;;;;5.43;2.92;;;;;;;;;;5068926;28;20040;-78
2024/03/23 11:45:54;;;;;;;4.97;2.85;;;;;;;;;;5060602;28;20036;-79
2024/03/23 11:48:21;;;;;;;3.33;1.80;;;;;;;;;;5052658;28;20028;-78
2024/03/23 11:50:53;;;;;;;3.50;1.98;;;;;;;;;;5044978;28;20444;-79
2024/03/23 11:53:23;;;;;;;5.85;2.67;;;;;;;;;;5059078;28;20113;-77
2024/03/23 11:55:53;;;;;;;7.00;2.58;;;;;;;;;;5069361;28;20041;-77
2024/03/23 11:58:22;;;;;;;5.50;3.20;;;;;;;;;;5069006;28;20036;-77
2024/03/23 12:00:56;;;;;;;7.50;3.47;;;;;;;;;;5071180;28;20041;-78
2024/03/23 12:03:31;;;;;;;4.43;2.95;;;;;;;;;;5076992;28;20040;-79
2024/03/23 12:06:01;;;;;;;3.25;1.73;;;;;;;;;;5038058;28;20052;-78
2024/03/23 12:08:38;;;;;;;6.97;3.65;;;;;;;;;;5054873;28;20495;-78
2024/03/23 12:11:16;;;;;;;8.45;4.32;;;;;;;;;;5067401;28;20050;-76
2024/03/23 12:13:46;;;;;;;9.27;3.30;;;;;;;;;;5069188;27;20075;-78
2024/03/23 12:16:15;;;;;;;5.38;2.47;;;;;;;;;;5075163;28;20051;-78
2024/03/23 12:18:44;;;;;;;13.25;4.10;;;;;;;;;;5056311;28;20072;-78
2024/03/23 12:21:10;;;;;;;4.22;2.22;;;;;;;;;;5071788;28;20681;-78
2024/03/23 12:23:38;;;;;;;4.10;1.88;;;;;;;;;;5065645;28;20037;-78
2024/03/23 12:26:03;;;;;;;3.85;2.63;;;;;;;;;;5057183;28;20068;-78
2024/03/23 12:28:29;;;;;;;5.55;2.22;;;;;;;;;;5056795;28;20472;-77
2024/03/23 12:30:54;;;;;;;3.90;2.95;;;;;;;;;;5057779;28;20039;-77
2024/03/23 12:33:24;;;;;;;4.78;2.17;;;;;;;;;;5066214;28;20313;-78
2024/03/23 12:35:53;;;;;;;3.28;1.50;;;;;;;;;;5013556;28;20044;-77
2024/03/23 12:38:19;;;;;;;6.07;2.90;;;;;;;;;;5038798;28;20056;-78
2024/03/23 12:40:50;;;;;;;3.15;2.10;;;;;;;;;;5039183;28;20071;-78
2024/03/23 12:43:17;;;;;;;3.20;1.90;;;;;;;;;;5038221;28;20110;-77
2024/03/23 12:45:49;;;;;;;2.97;1.73;;;;;;;;;;5065175;28;20036;-78
2024/03/23 12:48:15;;;;;;;2.88;2.03;;;;;;;;;;5066735;28;20044;-77
2024/03/23 12:50:41;;;;;;;3.70;2.22;;;;;;;;;;5057521;28;20033;-77
2024/03/23 12:53:06;;;;;;;5.28;2.50;;;;;;;;;;5054731;28;20565;-78
2024/03/23 12:55:31;;;;;;;3.60;2.15;;;;;;;;;;5063933;28;20039;-78
2024/03/23 12:57:57;;;;;;;3.22;2.00;;;;;;;;;;5066182;28;20051;-78
2024/03/23 13:00:22;;;;;;;4.53;2.10;;;;;;;;;;5069680;28;20035;-78
2024/03/23 13:02:48;;;;;;;2.60;2.08;;;;;;;;;;5057480;28;20066;-77
2024/03/23 13:05:15;;;;;;;2.42;1.67;;;;;;;;;;5056526;28;20040;-78
2024/03/23 13:07:44;;;;;;;2.15;1.73;;;;;;;;;;5045258;28;20036;-78
2024/03/23 13:10:10;;;;;;;2.05;1.65;;;;;;;;;;5057279;28;20698;-78
2024/03/23 13:12:35;;;;;;;4.60;2.30;;;;;;;;;;5068392;28;20031;-79
2024/03/23 13:15:01;;;;;;;1.13;1.05;;;;;;;;;;5075648;28;20036;-78
2024/03/23 13:17:29;;;;;;;3.53;1.60;;;;;;;;;;5074972;28;20033;-78
2024/03/23 13:19:58;;;;;;;1.58;1.48;;;;;;;;;;5073993;28;20044;-78
2024/03/23 13:22:23;;;;;;;3.45;1.55;;;;;;;;;;5062879;28;20031;-78
2024/03/23 13:24:49;;;;;;;3.05;2.10;;;;;;;;;;5061742;28;20042;-78
2024/03/23 13:27:15;;;;;;;1.77;1.67;;;;;;;;;;5075057;28;20211;-78
2024/03/23 13:29:41;;;;;;;2.38;2.00;;;;;;;;;;5068020;28;20496;-78
2024/03/23 13:32:06;;;;;;;2.85;1.60;;;;;;;;;;5072631;28;20066;-78
2024/03/23 13:34:33;;;;;;;3.63;1.90;;;;;;;;;;5071956;28;20094;-78
2024/03/23 13:36:58;;;;;;;3.72;1.85;;;;;;;;;;5063314;28;20073;-76
2024/03/23 13:39:25;;;;;;;2.30;1.52;;;;;;;;;;5057065;28;20341;-78
2024/03/23 13:41:50;;;;;;;2.85;1.60;;;;;;;;;;5071625;28;20422;-78
2024/03/23 13:44:16;;;;;;;1.48;1.33;;;;;;;;;;5053688;28;20142;-78
2024/03/23 13:46:42;;;;;;;1.42;1.10;;;;;;;;;;5070367;28;20040;-78
2024/03/23 13:49:24;;;;;;;1.38;1.25;;;;;;;;;;5063895;28;20040;-78
2024/03/23 13:51:50;;;;;;;1.63;1.20;;;;;;;;;;5058542;28;20131;-77
2024/03/23 13:54:15;;;;;;;1.30;1.10;;;;;;;;;;5052958;28;20449;-77
2024/03/23 13:56:40;;;;;;;1.77;0.93;;;;;;;;;;5049309;28;20053;-77
2024/03/23 13:59:06;;;;;;;1.35;0.98;;;;;;;;;;5038969;28;20032;-77
2024/03/23 14:01:32;;;;;;;1.90;1.10;;;;;;;;;;5065299;28;20110;-77
2024/03/23 14:03:57;;;;;;;1.75;1.05;;;;;;;;;;5066281;28;20067;-78
2024/03/23 14:06:22;;;;;;;2.03;0.93;;;;;;;;;;5057412;28;21295;-77
2024/03/23 14:08:49;;;;;;;2.33;1.08;;;;;;;;;;5067518;28;20097;-78
2024/03/23 14:11:14;;;;;;;1.23;1.10;;;;;;;;;;5067513;28;20048;-78
2024/03/23 14:13:40;;;;;;;2.40;0.98;;;;;;;;;;5060363;27;20040;-78
2024/03/23 14:16:06;;;;;;;2.05;1.10;;;;;;;;;;5068571;28;20058;-77
2024/03/23 14:18:31;;;;;;;1.85;1.45;;;;;;;;;;5073185;28;20111;-78
2024/03/23 14:20:58;;;;;;;1.65;1.17;;;;;;;;;;5048476;28;20043;-78
2024/03/23 14:23:29;;;;;;;1.75;1.02;;;;;;;;;;5059130;28;20066;-78
2024/03/23 14:25:56;;;;;;;1.10;1.00;;;;;;;;;;5052487;28;20032;-78
2024/03/23 14:28:22;;;;;;;1.17;1.08;;;;;;;;;;5065892;28;20063;-78
2024/03/23 14:30:49;;;;;;;2.28;1.02;;;;;;;;;;5064562;28;20024;-78
2024/03/23 14:33:15;;;;;;;1.52;1.40;;;;;;;;;;5082249;28;20471;-78
2024/03/23 14:35:40;;;;;;;2.33;1.50;;;;;;;;;;5063580;28;20033;-78
2024/03/23 14:38:06;;;;;;;2.28;1.42;;;;;;;;;;5058539;28;20040;-78
2024/03/23 14:40:31;;;;;;;1.73;1.20;;;;;;;;;;5060057;28;20032;-78